EDT,Max TemperatureF,Mean TemperatureF,Min TemperatureF,Max Dew PointF,MeanDew PointF,Min DewpointF,Max Humidity, Mean Humidity, Min Humidity, Max Sea Level PressureIn, Mean Sea Level PressureIn, Min Sea Level PressureIn, Max VisibilityMiles, Mean VisibilityMiles, Min VisibilityMiles, Max Wind SpeedMPH, Mean Wind SpeedMPH, Max Gust SpeedMPH,PrecipitationIn, CloudCover, Events, WindDirDegrees
2013-9-1,69,63,56,64,62,55,97,89,81,29.85,29.75,29.68,10,6,1,18,9,24,0.38,7,Rain,145
2013-9-2,56,55,53,53,50,49,93,85,77,29.88,29.80,29.73,10,8,4,22,13,29,0.01,8,Rain,302
2013-9-3,70,63,55,56,51,46,86,67,48,29.94,29.90,29.87,10,10,10,16,9,23,0.00,2,,294
2013-9-4,63,58,52,57,48,41,84,66,48,30.13,30.00,29.85,10,10,10,22,9,27,0.00,3,,319
2013-9-5,62,52,42,44,40,34,89,66,42,30.31,30.25,30.15,10,10,10,14,5,20,0.00,0,,323
2013-9-6,71,59,47,61,55,44,100,83,66,30.21,30.06,29.94,10,7,1,16,4,21,1.49,5,Rain,215
2013-9-7,74,66,58,65,61,51,100,84,67,30.04,29.90,29.85,10,7,1,13,4,23,0.07,7,Rain,58
2013-9-8,68,59,50,51,48,45,83,66,48,30.19,30.12,30.05,10,10,10,12,4,17,0.00,0,,85
2013-9-9,66,59,52,62,57,48,97,88,78,30.06,29.88,29.74,10,7,1,24,5,32,2.56,7,Rain-Thunderstorm,97
2013-9-10,82,73,64,70,65,62,100,85,69,29.91,29.81,29.73,10,5,0,17,4,26,1.12,7,Fog-Rain-Thunderstorm,319
2013-9-11,74,68,62,64,62,58,100,81,61,29.93,29.91,29.87,10,7,0,13,4,16,0.08,6,Fog-Rain,247
2013-9-12,64,55,46,61,52,40,93,78,62,30.07,29.93,29.84,10,10,8,22,12,29,T,7,Rain,317
2013-9-13,55,48,40,43,37,32,89,72,54,30.19,30.15,30.09,10,10,10,14,8,21,0.00,3,,338
2013-9-14,66,53,40,52,44,38,100,76,52,30.13,30.07,29.95,10,8,0,18,5,23,0.00,3,Fog,211
2013-9-15,61,52,43,56,51,34,93,82,70,30.25,30.02,29.93,10,9,2,15,7,23,0.12,7,Rain,288
2013-9-16,55,46,37,38,35,31,86,67,47,30.45,30.38,30.26,10,10,10,10,4,13,0.00,1,,338
2013-9-17,63,51,39,46,42,35,100,74,48,30.41,30.34,30.18,10,7,0,14,5,17,0.00,2,Fog,114
2013-9-18,67,57,47,57,51,45,93,80,67,30.16,30.05,29.95,10,10,7,12,5,15,T,5,,104
2013-9-19,74,67,60,63,59,56,93,79,64,29.95,29.88,29.77,10,10,7,13,6,17,0.00,7,,109
2013-9-20,70,63,56,66,62,51,100,92,84,29.76,29.65,29.60,10,7,0,17,9,24,0.72,8,Fog-Rain,227
2013-9-21,56,49,42,51,43,37,83,73,63,29.89,29.75,29.69,10,10,4,23,12,34,0.04,6,Rain,316
2013-9-22,54,46,38,39,36,33,92,73,54,30.11,30.04,29.91,10,10,10,12,5,16,0.00,3,,334
2013-9-23,59,49,38,43,41,35,92,73,53,30.22,30.17,30.12,10,10,10,10,4,15,0.00,1,,117
2013-9-24,65,54,42,51,45,41,100,76,52,30.18,30.12,30.04,10,8,0,9,3,15,0.00,1,Fog,87
2013-9-25,68,55,42,50,45,40,100,73,45,30.07,30.05,30.02,10,8,0,8,4,11,0.00,1,Fog,87
2013-9-26,72,58,43,51,46,41,93,64,35,30.15,30.12,30.05,10,10,7,10,3,13,0.00,0,,125
2013-9-27,72,60,47,53,49,45,93,69,44,30.23,30.19,30.16,10,10,10,14,6,18,0.00,0,,97
2013-9-28,70,62,53,56,54,51,93,77,61,30.17,30.06,29.84,10,10,6,22,11,29,0.00,1,,120
2013-9-29,65,56,47,57,49,41,93,70,46,30.01,29.92,29.81,10,8,2,18,6,27,0.23,5,Rain,288
2013-9-30,67,55,42,52,45,40,100,70,40,30.00,29.94,29.86,10,7,0,13,5,18,0.00,2,Fog,125